createdAt,value
2022-08-16T07:02:33.980Z,5.67
2022-08-16T07:05:56.835Z,6.63
2022-08-16T07:09:21.880Z,6.13
2022-08-16T07:12:45.825Z,5.20
2022-08-16T07:15:59.875Z,5.40
2022-08-16T07:19:12.844Z,5.73
2022-08-16T07:22:38.047Z,5.57
2022-08-16T08:16:47.030Z,5.67
2022-08-16T08:20:00.028Z,4.67
2022-08-16T08:23:24.034Z,5.17
2022-08-16T08:26:50.288Z,5.10
2022-08-16T08:30:49.945Z,5.80
2022-08-16T08:33:27.052Z,6.30
2022-08-16T08:36:54.393Z,5.20
2022-08-16T08:40:16.195Z,4.90
2022-08-16T08:43:28.077Z,4.87
2022-08-16T08:47:00.176Z,5.23
2022-08-16T08:50:05.153Z,4.87
2022-08-16T08:53:18.161Z,10.25
2022-08-16T08:56:45.247Z,4.87
2022-08-16T08:59:55.328Z,4.70
2022-08-16T09:03:19.138Z,5.10
2022-08-16T09:06:46.228Z,5.67
2022-08-16T09:10:06.202Z,4.40
2022-08-16T09:13:23.315Z,6.17
2022-08-16T09:48:57.274Z,6.00
2022-08-16T09:52:10.301Z,4.20
2022-08-16T09:55:25.290Z,4.20
2022-08-16T10:02:00.323Z,4.10
2022-08-16T10:09:04.341Z,4.20
2022-08-16T10:12:23.174Z,3.90
2022-08-16T10:15:36.435Z,4.40
2022-08-16T10:19:01.762Z,4.25
2022-08-16T10:21:56.047Z,4.37
2022-08-16T10:25:02.425Z,4.00
2022-08-16T10:28:29.301Z,3.90
2022-08-16T10:31:43.596Z,3.93
2022-08-16T10:34:41.444Z,4.10
2022-08-16T10:38:06.851Z,4.25
2022-08-16T10:41:20.076Z,3.20
2022-08-16T10:44:53.462Z,3.85
2022-08-16T10:47:44.499Z,3.50
2022-08-16T10:51:10.514Z,3.83
2022-08-16T10:54:29.727Z,3.80
2022-08-16T10:57:34.804Z,3.50
2022-08-16T11:00:48.613Z,3.50
2022-08-16T11:04:02.157Z,3.50
2022-08-16T11:07:41.810Z,3.00
2022-08-16T11:11:04.877Z,2.90
2022-08-16T11:17:01.994Z,3.87
2022-08-16T11:20:41.922Z,3.23
2022-08-16T11:23:18.575Z,3.13
2022-08-16T11:26:31.580Z,3.00
2022-08-16T11:29:44.649Z,3.05
2022-08-16T11:32:58.648Z,3.50
2022-08-16T11:36:27.635Z,3.12
2022-08-16T11:39:34.667Z,2.90
2022-08-16T11:42:58.668Z,3.10
2022-08-16T11:46:34.168Z,3.23
2022-08-16T11:49:35.660Z,2.95
2022-08-16T11:52:47.722Z,3.42
2022-08-16T11:56:14.723Z,3.10
2022-08-16T11:59:13.716Z,3.22
2022-08-16T12:02:31.028Z,2.90
2022-08-16T12:05:52.091Z,3.05
2022-08-16T12:09:02.041Z,3.10
2022-08-16T12:12:14.748Z,2.87
2022-08-16T12:15:15.736Z,2.92
2022-08-16T12:18:28.761Z,2.95
2022-08-16T12:21:58.803Z,2.93
2022-08-16T12:25:17.736Z,2.62
2022-08-16T12:28:37.060Z,3.20
2022-08-16T12:32:01.451Z,2.97
2022-08-16T12:34:54.780Z,2.72
2022-08-16T12:38:41.647Z,3.10
2022-08-16T12:41:34.889Z,3.00
2022-08-16T12:44:45.809Z,2.80
2022-08-16T12:48:31.467Z,2.42
2022-08-16T12:51:32.874Z,2.67
2022-08-16T12:54:42.813Z,2.67
2022-08-16T12:58:13.746Z,2.37
2022-08-16T13:01:18.914Z,2.80
2022-08-16T13:04:33.312Z,3.10
2022-08-16T13:07:37.492Z,2.67
2022-08-16T13:10:58.881Z,2.50
2022-08-16T13:14:12.409Z,2.87
2022-08-16T13:17:34.910Z,2.50
2022-08-16T13:20:46.929Z,2.80
2022-08-16T13:24:00.924Z,2.47
2022-08-16T13:27:14.914Z,2.50
2022-08-16T13:30:41.183Z,2.60
2022-08-16T13:33:46.129Z,2.65
2022-08-16T13:37:08.965Z,2.40
2022-08-16T13:40:10.095Z,2.40
2022-08-16T13:43:36.009Z,2.65
2022-08-16T13:46:37.014Z,2.58
2022-08-16T13:49:49.959Z,2.60
2022-08-16T13:53:02.995Z,2.55
2022-08-16T13:56:24.907Z,2.50
2022-08-16T13:59:33.015Z,2.65
2022-08-16T14:02:47.081Z,2.97
2022-08-16T14:06:12.019Z,2.62
2022-08-16T14:09:13.032Z,2.62
2022-08-16T14:12:41.029Z,2.62
2022-08-16T14:15:54.189Z,2.47
2022-08-16T14:19:18.102Z,2.78
2022-08-16T14:22:42.548Z,3.07
2022-08-16T14:26:07.135Z,2.80
2022-08-16T14:29:08.070Z,2.65
2022-08-16T14:32:34.684Z,2.90
2022-08-16T14:35:50.326Z,2.85
2022-08-16T14:39:02.258Z,2.70
2022-08-16T14:42:14.139Z,2.80
2022-08-16T14:45:38.131Z,2.87
2022-08-16T14:49:04.213Z,3.10
2022-08-16T14:52:54.006Z,2.47
2022-08-16T14:55:29.170Z,3.33
2022-08-16T14:58:42.162Z,2.80
2022-08-16T15:01:59.113Z,3.05
2022-08-16T15:05:20.240Z,2.75
2022-08-16T15:08:36.762Z,2.97
2022-08-16T15:11:45.296Z,3.08
2022-08-16T15:14:45.236Z,2.80
2022-08-16T15:18:12.382Z,3.00
2022-08-16T15:21:25.381Z,2.83
2022-08-16T15:24:49.322Z,2.87
2022-08-16T15:28:01.298Z,3.25
2022-08-16T15:31:25.294Z,3.00
2022-08-16T15:34:37.292Z,3.00
2022-08-16T15:38:02.313Z,3.20
2022-08-16T15:41:04.526Z,3.13
2022-08-16T15:44:28.429Z,2.87
2022-08-16T15:47:40.368Z,3.10
2022-08-16T15:51:04.313Z,3.00
2022-08-16T15:54:29.676Z,2.95
2022-08-16T15:57:42.407Z,3.22
2022-08-16T16:00:43.437Z,3.47
2022-08-16T16:04:10.432Z,3.57
2022-08-16T16:07:22.386Z,3.30
2022-08-16T16:10:54.616Z,3.60
2022-08-16T16:17:07.394Z,3.03
2022-08-16T16:19:58.432Z,3.55
2022-08-16T16:23:23.455Z,3.40
2022-08-16T16:26:36.428Z,3.60
2022-08-16T16:29:50.899Z,3.33
2022-08-16T16:33:01.530Z,3.37
2022-08-16T16:36:29.374Z,3.40
2022-08-16T16:39:26.526Z,3.62
2022-08-16T16:42:53.449Z,3.60
2022-08-16T16:46:38.972Z,3.67
2022-08-16T16:49:29.523Z,3.85
2022-08-16T16:52:43.676Z,3.80
2022-08-16T16:55:44.524Z,3.55
2022-08-16T16:59:10.652Z,3.58
2022-08-16T17:02:41.117Z,3.83
2022-08-16T17:05:57.099Z,4.18
2022-08-16T17:08:59.547Z,4.40
2022-08-16T17:12:00.550Z,3.80
2022-08-16T17:15:27.588Z,3.67
2022-08-16T17:19:17.252Z,4.15
2022-08-16T17:21:52.586Z,3.60
2022-08-16T17:25:07.247Z,3.77
2022-08-16T17:28:59.010Z,3.75
2022-08-16T17:31:43.936Z,4.10
2022-08-16T17:35:10.759Z,4.03
2022-08-16T17:38:08.696Z,4.18
2022-08-16T17:41:21.680Z,4.70
2022-08-16T17:44:33.685Z,3.93
2022-08-16T17:47:59.657Z,3.90
2022-08-16T17:51:11.665Z,3.97
2022-08-16T17:54:38.668Z,3.87
2022-08-16T17:57:39.681Z,4.00
2022-08-16T18:01:04.818Z,4.50
2022-08-16T18:04:48.984Z,4.60
2022-08-16T18:07:42.727Z,4.32
2022-08-16T18:11:09.739Z,4.13
2022-08-16T18:14:10.769Z,4.90
2022-08-16T18:17:34.740Z,4.30
2022-08-16T18:20:54.360Z,4.10
2022-08-16T18:24:06.774Z,4.30
2022-08-16T18:43:02.860Z,4.10
2022-08-16T19:41:08.009Z,5.00
2022-08-16T19:44:32.068Z,4.30
2022-08-16T19:47:46.078Z,4.20
2022-08-16T19:51:10.999Z,4.35
2022-08-16T19:54:12.012Z,4.50
2022-08-16T19:57:16.060Z,4.10
2022-08-16T20:00:35.120Z,3.87
2022-08-16T20:03:54.064Z,4.20
2022-08-16T20:07:06.036Z,4.00
2022-08-16T20:10:32.125Z,4.53
2022-08-16T20:13:44.073Z,4.10
2022-08-16T20:16:57.096Z,4.70
2022-08-16T20:20:11.134Z,4.33
2022-08-16T20:23:35.122Z,4.75
2022-08-16T20:26:36.172Z,4.90
2022-08-16T20:30:00.168Z,4.13
2022-08-16T20:33:12.131Z,3.90
2022-08-16T20:36:39.251Z,3.70
2022-08-16T20:39:51.262Z,4.10
2022-08-16T20:43:27.264Z,4.00
2022-08-16T20:46:29.184Z,4.00
2022-08-16T20:49:42.234Z,4.00
2022-08-16T20:52:56.275Z,4.50
